Hawleys, New York
Current Conditions -  °F | °C
As of 9:15 AM on Sunday 25 Jan 2015 (Local Time) from KMSV Reporting Station
Broken Clouds Broken Clouds  
Wind Chill: 15°   Ceiling: 3200
Heat Index: 28°   Visibility: 10mi
Dew Point: 18°   Wind: 20mph
Humidity: 64%   Direction: 310°NW
Pressure: 29.66"   Gusts: 29mph
Location:  42.1536°N, 75.1637°W
Report Text: KMSV 251415Z AUTO 31017G25KT 10SM BKN032 BKN039 M02/M08 A2966 RMK AO1
Loading
Personal Weather Stations






























Interactive Weather Map New forecast layout! Learn more

10-Day Weather Forecast

Advertisements
Track Severe Weather on mobile